createdAt,value
2022-08-16T00:00:22.522Z,29.67
2022-08-16T00:02:53.835Z,33.65
2022-08-16T00:05:25.328Z,31.95
2022-08-16T00:07:59.085Z,34.22
2022-08-16T00:10:33.347Z,33.17
2022-08-16T00:13:04.174Z,31.55
2022-08-16T00:15:51.812Z,28.60
2022-08-16T00:18:29.883Z,29.35
2022-08-16T00:21:03.693Z,30.38
2022-08-16T00:23:40.330Z,32.97
2022-08-16T00:26:36.451Z,30.73
2022-08-16T00:29:06.119Z,33.47
2022-08-16T00:31:58.842Z,32.22
2022-08-16T00:34:41.307Z,34.97
2022-08-16T00:37:17.223Z,33.17
2022-08-16T00:39:58.262Z,30.15
2022-08-16T00:42:32.319Z,35.20
2022-08-16T00:45:09.829Z,41.63
2022-08-16T00:47:49.417Z,36.17
2022-08-16T00:50:22.378Z,32.55
2022-08-16T00:53:06.126Z,32.50
2022-08-16T00:55:41.299Z,32.40
2022-08-16T00:58:13.217Z,34.25
2022-08-16T01:00:54.287Z,35.03
2022-08-16T01:03:30.243Z,35.65
2022-08-16T01:06:39.540Z,37.03
2022-08-16T01:08:54.538Z,32.78
2022-08-16T01:11:28.083Z,36.40
2022-08-16T01:14:05.998Z,35.47
2022-08-16T01:16:36.278Z,30.63
2022-08-16T01:19:11.611Z,33.97
2022-08-16T01:21:49.331Z,35.40
2022-08-16T01:24:51.552Z,31.65
2022-08-16T01:27:24.934Z,31.95
2022-08-16T01:30:00.151Z,30.58
2022-08-16T01:32:37.382Z,35.78
2022-08-16T01:35:20.931Z,32.53
2022-08-16T01:37:54.277Z,30.50
2022-08-16T01:40:31.557Z,39.67
2022-08-16T01:43:00.950Z,38.15
2022-08-16T01:45:40.304Z,34.65
2022-08-16T01:48:19.738Z,35.55
2022-08-16T01:51:08.811Z,36.92
2022-08-16T01:53:43.434Z,37.20
2022-08-16T01:56:24.529Z,40.97
2022-08-16T01:58:58.623Z,35.80
2022-08-16T02:01:29.971Z,40.67
2022-08-16T02:04:10.911Z,41.40
2022-08-16T02:06:46.887Z,46.47
2022-08-16T02:09:23.414Z,45.92
2022-08-16T02:11:58.773Z,42.88
2022-08-16T02:14:30.629Z,38.90
2022-08-16T02:17:03.707Z,37.28
2022-08-16T02:19:59.530Z,36.20
2022-08-16T02:22:34.975Z,41.45
2022-08-16T02:25:09.982Z,41.88
2022-08-16T02:27:43.110Z,42.90
2022-08-16T02:30:37.485Z,45.60
2022-08-16T02:33:07.798Z,40.30
2022-08-16T02:35:49.720Z,42.13
2022-08-16T02:38:26.866Z,38.28
2022-08-16T02:40:57.777Z,42.05
2022-08-16T02:43:33.846Z,42.53
2022-08-16T02:46:09.322Z,41.92
2022-08-16T02:48:47.441Z,44.45
2022-08-16T02:51:23.309Z,52.72
2022-08-16T02:53:54.833Z,46.17
2022-08-16T02:56:32.126Z,44.38
2022-08-16T02:59:11.627Z,44.15
2022-08-16T03:01:47.206Z,47.33
2022-08-16T03:04:51.190Z,42.55
2022-08-16T03:07:27.582Z,46.95
2022-08-16T03:10:00.225Z,47.22
2022-08-16T03:12:36.809Z,41.35
2022-08-16T03:15:12.047Z,38.65
2022-08-16T03:17:53.927Z,39.85
2022-08-16T03:20:32.215Z,34.67
2022-08-16T03:23:09.123Z,40.22
2022-08-16T03:25:44.331Z,42.80
2022-08-16T03:28:17.161Z,41.47
2022-08-16T03:30:50.245Z,39.97
2022-08-16T03:33:20.757Z,37.15
2022-08-16T03:36:30.918Z,38.33
2022-08-16T03:38:54.486Z,43.95
2022-08-16T03:41:29.597Z,39.40
2022-08-16T03:44:44.429Z,38.28
2022-08-16T03:47:10.173Z,42.22
2022-08-16T03:49:41.333Z,39.42
2022-08-16T03:52:13.665Z,42.60
2022-08-16T03:54:57.610Z,39.70
2022-08-16T03:57:31.798Z,43.30
2022-08-16T04:00:20.397Z,38.67
2022-08-16T04:03:09.130Z,44.78
2022-08-16T04:05:46.621Z,44.38
2022-08-16T04:08:22.738Z,47.20
2022-08-16T04:10:57.997Z,45.45
2022-08-16T04:14:01.433Z,41.78
2022-08-16T04:16:27.073Z,46.80
2022-08-16T04:19:04.442Z,45.35
2022-08-16T04:21:46.057Z,41.90
2022-08-16T04:24:23.897Z,42.10
2022-08-16T04:26:58.598Z,51.25
2022-08-16T04:29:43.799Z,50.00
2022-08-16T04:32:16.229Z,49.88
2022-08-16T04:34:52.614Z,45.47
2022-08-16T04:37:21.756Z,50.70
2022-08-16T04:39:57.562Z,47.20
2022-08-16T04:42:29.591Z,44.03
2022-08-16T04:45:01.937Z,52.72
2022-08-16T04:47:36.117Z,47.13
2022-08-16T04:50:14.712Z,48.72
2022-08-16T04:53:00.590Z,44.72
2022-08-16T04:55:38.197Z,47.03
2022-08-16T04:58:45.951Z,47.25
2022-08-16T05:00:59.934Z,44.38
2022-08-16T05:03:29.370Z,48.33
2022-08-16T05:06:05.191Z,50.60
2022-08-16T05:08:35.979Z,52.10
2022-08-16T05:11:16.820Z,49.30
2022-08-16T05:13:49.409Z,48.13
2022-08-16T05:16:29.909Z,51.30
2022-08-16T05:19:16.359Z,54.92
2022-08-16T05:22:07.128Z,47.45
2022-08-16T05:24:49.499Z,48.45
2022-08-16T05:27:25.521Z,56.60
2022-08-16T05:30:01.017Z,50.00
2022-08-16T05:32:43.279Z,48.85
2022-08-16T05:35:16.797Z,51.10
2022-08-16T05:38:04.006Z,44.15
2022-08-16T05:40:59.994Z,41.83
2022-08-16T05:43:43.387Z,48.42
2022-08-16T05:46:29.992Z,46.80
2022-08-16T05:49:09.450Z,45.15
2022-08-16T05:51:45.947Z,42.72
2022-08-16T05:54:24.963Z,47.53
2022-08-16T05:57:00.005Z,42.42
2022-08-16T05:59:30.480Z,41.90
2022-08-16T06:02:00.232Z,38.58
2022-08-16T06:04:36.173Z,40.00
2022-08-16T06:07:24.279Z,40.30
2022-08-16T06:10:02.808Z,44.70
2022-08-16T06:12:34.084Z,38.38
2022-08-16T06:15:15.041Z,37.20
2022-08-16T06:17:51.658Z,42.15
2022-08-16T06:20:35.374Z,43.17
2022-08-16T06:23:17.251Z,39.22
2022-08-16T06:26:09.641Z,38.95
2022-08-16T06:28:45.227Z,37.80
2022-08-16T06:31:24.597Z,38.35
2022-08-16T06:33:55.829Z,37.67
2022-08-16T06:36:26.816Z,39.42
2022-08-16T06:39:06.116Z,36.35
2022-08-16T06:41:48.871Z,34.30
2022-08-16T06:44:37.431Z,35.88
2022-08-16T06:47:16.910Z,39.22
2022-08-16T06:49:54.085Z,37.58
2022-08-16T06:52:58.094Z,39.15
2022-08-16T06:55:18.561Z,34.47
2022-08-16T06:57:54.280Z,37.65
2022-08-16T07:00:25.818Z,40.72
2022-08-16T07:03:27.361Z,38.35
2022-08-16T07:05:58.025Z,34.55
2022-08-16T07:08:33.147Z,36.53
2022-08-16T07:11:02.214Z,44.53
2022-08-16T07:14:03.961Z,36.33
2022-08-16T07:16:28.368Z,37.30
2022-08-16T07:19:01.969Z,46.85
2022-08-16T07:21:46.445Z,42.65
2022-08-16T07:24:29.549Z,37.58
2022-08-16T07:27:03.209Z,31.92
2022-08-16T07:29:34.871Z,34.38
2022-08-16T07:32:08.076Z,38.90
2022-08-16T07:34:37.774Z,39.95
2022-08-16T07:37:18.281Z,41.42
2022-08-16T07:40:11.321Z,39.45
2022-08-16T07:42:45.537Z,40.45
2022-08-16T07:45:17.120Z,43.25
2022-08-16T07:47:53.898Z,43.15
2022-08-16T07:50:55.577Z,34.90
2022-08-16T07:53:15.460Z,38.95
2022-08-16T07:55:48.102Z,37.30
2022-08-16T07:58:35.048Z,42.97
2022-08-16T08:01:10.685Z,34.90
2022-08-16T08:03:48.725Z,40.38
2022-08-16T08:06:24.968Z,42.53
2022-08-16T08:08:57.359Z,40.03
2022-08-16T08:11:29.777Z,42.75
2022-08-16T08:14:03.231Z,34.33
2022-08-16T08:16:36.341Z,33.92
2022-08-16T08:19:12.452Z,35.22
2022-08-16T08:22:00.276Z,35.58
2022-08-16T08:24:54.025Z,40.70
2022-08-16T08:27:32.510Z,34.38
2022-08-16T08:30:49.355Z,33.25
2022-08-16T08:33:00.038Z,35.03
2022-08-16T08:35:33.450Z,36.13
2022-08-16T08:38:08.926Z,35.17
2022-08-16T08:40:45.857Z,37.47
2022-08-16T08:43:18.482Z,38.78
2022-08-16T08:45:54.491Z,33.83
2022-08-16T08:48:34.086Z,33.55
2022-08-16T08:51:12.527Z,33.00
2022-08-16T08:53:57.270Z,31.85
2022-08-16T08:56:30.256Z,33.97
2022-08-16T08:59:13.549Z,29.23
2022-08-16T09:01:56.983Z,28.73
2022-08-16T09:04:31.480Z,33.67
2022-08-16T09:07:04.166Z,27.98
2022-08-16T09:09:40.920Z,30.55
2022-08-16T09:12:35.889Z,28.88
2022-08-16T09:15:09.924Z,29.20
2022-08-16T09:17:51.598Z,29.88
2022-08-16T09:20:25.938Z,29.85
2022-08-16T09:22:57.369Z,31.83
2022-08-16T09:25:46.119Z,32.28
2022-08-16T09:29:13.457Z,35.85
2022-08-16T09:31:16.689Z,35.15
2022-08-16T09:33:46.208Z,32.58
2022-08-16T09:36:44.985Z,30.75
2022-08-16T09:39:41.351Z,30.58
2022-08-16T09:42:56.569Z,30.70
2022-08-16T09:45:22.278Z,28.95
2022-08-16T09:48:44.247Z,30.02
2022-08-16T09:51:03.312Z,30.73
2022-08-16T09:53:34.593Z,34.58
2022-08-16T09:56:04.812Z,30.67
2022-08-16T09:59:03.387Z,31.95
2022-08-16T10:04:30.461Z,23.25
2022-08-16T10:07:14.961Z,29.80
2022-08-16T10:09:54.790Z,28.98
2022-08-16T10:12:45.367Z,26.45
2022-08-16T10:15:17.403Z,30.55
2022-08-16T10:18:01.714Z,26.90
2022-08-16T10:20:34.792Z,29.42
2022-08-16T10:23:07.096Z,26.75
2022-08-16T10:28:32.563Z,32.27
2022-08-16T10:31:14.401Z,26.83
2022-08-16T10:33:46.707Z,29.02
2022-08-16T10:36:39.003Z,29.70
2022-08-16T10:39:08.560Z,33.45
2022-08-16T10:41:38.874Z,24.77
2022-08-16T10:44:21.898Z,26.70
2022-08-16T10:46:51.447Z,23.15
2022-08-16T10:49:20.314Z,33.80
2022-08-16T10:52:02.409Z,23.63
2022-08-16T10:57:32.932Z,23.92
2022-08-16T11:00:04.788Z,32.47
2022-08-16T11:02:59.116Z,28.35
2022-08-16T11:05:23.692Z,37.75
2022-08-16T11:07:53.801Z,32.13
2022-08-16T11:13:57.292Z,38.65
2022-08-16T11:16:27.523Z,35.55
2022-08-16T11:19:06.409Z,31.75
2022-08-16T11:24:39.450Z,34.35
2022-08-16T11:27:35.412Z,28.90
2022-08-16T11:30:01.060Z,41.53
2022-08-16T11:32:32.190Z,30.55
2022-08-16T11:35:10.658Z,29.33
2022-08-16T11:40:38.927Z,35.13
2022-08-16T11:43:13.150Z,39.63
2022-08-16T11:45:53.422Z,31.60
2022-08-16T11:48:23.310Z,22.42
2022-08-16T11:50:52.427Z,36.15
2022-08-16T11:53:22.294Z,24.77
2022-08-16T11:55:54.886Z,20.77
2022-08-16T11:58:26.236Z,25.58
2022-08-16T12:01:01.735Z,23.45
2022-08-16T12:03:35.413Z,34.90
2022-08-16T12:06:11.265Z,21.05
2022-08-16T12:09:00.741Z,22.30
2022-08-16T12:11:32.032Z,23.02
2022-08-16T12:14:04.228Z,24.20
2022-08-16T12:16:36.043Z,19.37
2022-08-16T12:19:10.796Z,19.95
2022-08-16T12:21:58.234Z,16.13
2022-08-16T12:24:29.424Z,18.80
2022-08-16T12:27:00.060Z,19.10
2022-08-16T12:29:29.886Z,22.20
2022-08-16T12:32:35.849Z,24.92
2022-08-16T12:34:53.097Z,19.00
2022-08-16T12:37:24.641Z,18.55
2022-08-16T12:39:55.688Z,22.58
2022-08-16T12:42:35.609Z,22.33
2022-08-16T12:45:07.388Z,18.75
2022-08-16T12:48:22.209Z,24.33
2022-08-16T12:50:50.225Z,24.83
2022-08-16T12:53:20.632Z,24.85
2022-08-16T12:55:50.752Z,22.90
2022-08-16T12:58:49.735Z,20.27
2022-08-16T13:01:11.346Z,22.15
2022-08-16T13:03:45.399Z,18.10
2022-08-16T13:06:14.783Z,20.20
2022-08-16T13:08:49.529Z,20.27
2022-08-16T13:11:21.813Z,19.83
2022-08-16T13:13:54.697Z,19.13
2022-08-16T13:16:24.932Z,16.23
2022-08-16T13:18:57.273Z,24.23
2022-08-16T13:21:26.066Z,17.25
2022-08-16T13:23:55.989Z,21.17
2022-08-16T13:26:26.361Z,18.17
2022-08-16T13:28:55.483Z,22.45
2022-08-16T13:31:24.304Z,18.25
2022-08-16T13:33:58.511Z,20.65
2022-08-16T13:36:48.487Z,18.25
2022-08-16T13:39:18.710Z,24.48
2022-08-16T13:41:53.925Z,18.05
2022-08-16T13:44:48.783Z,15.45
2022-08-16T13:47:13.551Z,17.92
2022-08-16T13:49:43.380Z,17.73
2022-08-16T13:52:14.134Z,22.27
2022-08-16T13:54:43.003Z,27.05
2022-08-16T13:57:12.499Z,21.30
2022-08-16T13:59:43.565Z,21.55
2022-08-16T14:02:14.249Z,24.20
2022-08-16T14:04:44.591Z,20.10
2022-08-16T14:07:19.926Z,17.02
2022-08-16T14:09:55.116Z,26.25
2022-08-16T14:12:28.505Z,17.58
2022-08-16T14:15:01.862Z,25.10
2022-08-16T14:18:14.992Z,28.15
2022-08-16T14:20:21.814Z,26.40
2022-08-16T14:22:52.420Z,29.33
2022-08-16T14:25:24.561Z,25.15
2022-08-16T14:27:54.912Z,26.90
2022-08-16T14:30:25.532Z,24.65
2022-08-16T14:32:56.131Z,26.40
2022-08-16T14:35:36.748Z,29.60
2022-08-16T14:38:23.716Z,21.88
2022-08-16T14:40:55.220Z,25.58
2022-08-16T14:43:25.070Z,24.92
2022-08-16T14:45:55.704Z,32.80
2022-08-16T14:48:25.874Z,30.00
2022-08-16T14:50:56.162Z,28.70
2022-08-16T14:53:27.248Z,28.45
2022-08-16T14:55:56.102Z,23.52
2022-08-16T14:58:35.036Z,23.90
2022-08-16T15:01:10.121Z,33.78
2022-08-16T15:06:14.646Z,24.95
2022-08-16T15:08:47.481Z,22.17
2022-08-16T15:11:17.804Z,25.60
2022-08-16T15:13:49.152Z,25.58
2022-08-16T15:16:22.973Z,32.40
2022-08-16T15:18:59.434Z,33.13
2022-08-16T15:21:30.686Z,27.10
2022-08-16T15:24:01.225Z,32.00
2022-08-16T15:26:42.768Z,23.02
2022-08-16T15:29:14.211Z,22.30
2022-08-16T15:31:46.189Z,29.67
2022-08-16T15:34:22.067Z,32.55
2022-08-16T15:36:56.045Z,25.95
2022-08-16T15:39:35.562Z,29.25
2022-08-16T15:42:11.470Z,32.55
2022-08-16T15:44:58.575Z,40.05
2022-08-16T15:47:28.464Z,27.20
2022-08-16T15:49:57.901Z,25.02
2022-08-16T15:52:31.391Z,28.15
2022-08-16T15:55:12.625Z,27.30
2022-08-16T15:57:42.517Z,31.42
2022-08-16T16:00:14.951Z,22.67
2022-08-16T16:02:45.333Z,19.98
2022-08-16T16:05:17.248Z,25.58
2022-08-16T16:07:56.191Z,23.92
2022-08-16T16:10:38.201Z,23.65
2022-08-16T16:13:09.265Z,28.63
2022-08-16T16:15:45.351Z,21.75
2022-08-16T16:18:15.395Z,27.77
2022-08-16T16:20:47.703Z,33.10
2022-08-16T16:23:23.404Z,23.90
2022-08-16T16:25:56.816Z,25.58
2022-08-16T16:28:46.345Z,22.08
2022-08-16T16:31:20.140Z,20.90
2022-08-16T16:33:56.248Z,20.52
2022-08-16T16:36:29.513Z,16.65
2022-08-16T16:39:00.082Z,18.23
2022-08-16T16:41:32.275Z,23.08
2022-08-16T16:46:42.444Z,24.40
2022-08-16T16:49:14.625Z,24.48
2022-08-16T16:51:50.187Z,20.23
2022-08-16T16:54:28.109Z,23.08
2022-08-16T16:56:59.931Z,20.23
2022-08-16T16:59:28.650Z,20.85
2022-08-16T17:02:38.599Z,22.02
2022-08-16T17:04:50.468Z,21.77
2022-08-16T17:07:24.026Z,20.08
2022-08-16T17:09:54.468Z,19.02
2022-08-16T17:12:47.231Z,23.85
2022-08-16T17:15:16.450Z,20.42
2022-08-16T17:18:00.409Z,18.35
2022-08-16T17:20:31.080Z,22.85
2022-08-16T17:23:01.050Z,20.88
2022-08-16T17:25:36.704Z,19.23
2022-08-16T17:28:58.154Z,23.50
2022-08-16T17:30:59.638Z,18.27
2022-08-16T17:33:37.060Z,19.13
2022-08-16T17:36:36.405Z,17.40
2022-08-16T17:39:07.891Z,24.45
2022-08-16T17:41:39.034Z,21.73
2022-08-16T17:44:10.730Z,20.50
2022-08-16T17:46:52.242Z,20.98
2022-08-16T17:49:22.319Z,19.25
2022-08-16T17:51:51.333Z,24.33
2022-08-16T17:54:30.739Z,32.90
2022-08-16T17:57:00.987Z,17.90
2022-08-16T17:59:31.966Z,25.55
2022-08-16T18:02:42.419Z,26.95
2022-08-16T18:05:00.340Z,21.75
2022-08-16T18:07:29.452Z,19.10
2022-08-16T18:09:58.656Z,21.95
2022-08-16T18:12:50.892Z,23.92
2022-08-16T18:15:25.123Z,18.75
2022-08-16T18:17:54.800Z,27.45
2022-08-16T18:20:43.184Z,21.98
2022-08-16T18:23:15.496Z,19.67
2022-08-16T18:25:51.772Z,28.65
2022-08-16T18:28:21.511Z,30.58
2022-08-16T18:30:54.212Z,22.17
2022-08-16T18:33:27.542Z,25.83
2022-08-16T18:35:57.875Z,24.60
2022-08-16T18:38:27.669Z,25.77
2022-08-16T18:40:59.516Z,27.40
2022-08-16T18:44:22.550Z,26.65
2022-08-16T18:46:18.373Z,24.38
2022-08-16T18:48:47.093Z,24.83
2022-08-16T18:51:20.194Z,27.30
2022-08-16T18:53:53.718Z,25.08
2022-08-16T18:56:22.420Z,27.45
2022-08-16T18:58:51.094Z,31.17
2022-08-16T19:01:21.606Z,26.33
2022-08-16T19:03:50.328Z,26.67
2022-08-16T19:06:21.113Z,24.33
2022-08-16T19:08:52.389Z,27.67
2022-08-16T19:11:23.446Z,25.70
2022-08-16T19:13:52.662Z,23.13
2022-08-16T19:16:24.366Z,23.17
2022-08-16T19:18:53.193Z,24.55
2022-08-16T19:21:24.263Z,23.15
2022-08-16T19:23:52.964Z,27.48
2022-08-16T19:26:24.931Z,26.42
2022-08-16T19:28:58.460Z,25.50
2022-08-16T19:31:31.653Z,32.22
2022-08-16T19:34:01.475Z,42.33
2022-08-16T19:36:35.274Z,30.35
2022-08-16T19:39:09.471Z,33.22
2022-08-16T19:42:36.012Z,28.52
2022-08-16T19:45:06.848Z,27.15
2022-08-16T19:47:39.106Z,25.45
2022-08-16T19:50:08.817Z,22.42
2022-08-16T19:52:40.468Z,23.65
2022-08-16T19:55:11.099Z,25.33
2022-08-16T19:57:41.291Z,26.13
2022-08-16T20:00:15.280Z,24.73
2022-08-16T20:02:52.454Z,27.40
2022-08-16T20:05:24.112Z,22.17
2022-08-16T20:07:54.368Z,23.52
2022-08-16T20:10:29.917Z,20.33
2022-08-16T20:13:02.475Z,19.13
2022-08-16T20:15:32.970Z,23.73
2022-08-16T20:18:06.641Z,21.52
2022-08-16T20:20:50.691Z,20.08
2022-08-16T20:23:24.573Z,17.92
2022-08-16T20:25:55.757Z,22.27
2022-08-16T20:28:51.690Z,27.17
2022-08-16T20:31:14.449Z,30.48
2022-08-16T20:33:44.592Z,68.88
2022-08-16T20:36:16.536Z,37.65
2022-08-16T20:38:47.819Z,31.23
2022-08-16T20:41:18.715Z,31.45
2022-08-16T20:43:48.610Z,25.50
2022-08-16T20:46:18.229Z,25.20
2022-08-16T20:48:48.387Z,24.10
2022-08-16T20:51:17.666Z,23.70
2022-08-16T20:53:46.416Z,23.10
2022-08-16T20:56:15.265Z,22.77
2022-08-16T20:58:44.107Z,34.40
2022-08-16T21:01:12.861Z,25.45
2022-08-16T21:03:45.785Z,20.98
2022-08-16T21:06:16.810Z,22.77
2022-08-16T21:08:52.009Z,22.95
2022-08-16T21:11:21.986Z,24.90
2022-08-16T21:13:51.372Z,23.10
2022-08-16T21:16:29.349Z,25.38
2022-08-16T21:18:58.144Z,24.92
2022-08-16T21:21:31.911Z,23.70
2022-08-16T21:24:02.849Z,31.15
2022-08-16T21:26:31.942Z,27.33
2022-08-16T21:29:01.053Z,27.23
2022-08-16T21:31:30.026Z,29.55
2022-08-16T21:33:59.098Z,29.27
2022-08-16T21:36:34.621Z,28.58
2022-08-16T21:39:07.070Z,26.27
2022-08-16T21:41:38.585Z,30.13
2022-08-16T21:44:07.540Z,28.88
2022-08-16T21:46:39.653Z,31.33
2022-08-16T21:49:08.735Z,28.48
2022-08-16T21:51:40.377Z,29.58
2022-08-16T21:54:09.832Z,29.02
2022-08-16T21:56:39.013Z,32.90
2022-08-16T21:59:12.174Z,27.92
2022-08-16T22:01:43.392Z,29.60
2022-08-16T22:04:36.773Z,29.60
2022-08-16T22:07:07.468Z,30.45
2022-08-16T22:09:36.899Z,29.70
2022-08-16T22:12:06.830Z,29.98
2022-08-16T22:14:36.166Z,30.20
2022-08-16T22:17:05.244Z,31.55
2022-08-16T22:19:36.395Z,29.45
2022-08-16T22:22:09.540Z,32.00
2022-08-16T22:24:39.212Z,32.78
2022-08-16T22:27:08.237Z,35.10
2022-08-16T22:29:39.571Z,33.80
2022-08-16T22:32:11.937Z,35.35
2022-08-16T22:34:43.655Z,35.13
2022-08-16T22:37:14.341Z,37.03
2022-08-16T22:39:43.356Z,40.28
2022-08-16T22:42:14.366Z,35.63
2022-08-16T22:44:46.281Z,36.20
2022-08-16T22:47:15.491Z,42.72
2022-08-16T22:49:44.711Z,40.08
2022-08-16T22:52:50.834Z,44.40
2022-08-16T22:55:07.919Z,43.30
2022-08-16T22:57:40.223Z,45.35
2022-08-16T23:00:15.773Z,50.05
2022-08-16T23:02:59.607Z,49.40
2022-08-16T23:05:32.182Z,51.90
2022-08-16T23:08:03.191Z,47.17
2022-08-16T23:10:32.306Z,50.63
2022-08-16T23:13:04.463Z,56.40
2022-08-16T23:15:41.385Z,46.30
2022-08-16T23:18:11.049Z,47.40
2022-08-16T23:20:42.687Z,48.20
2022-08-16T23:23:21.080Z,47.60
2022-08-16T23:25:55.043Z,45.30
2022-08-16T23:28:26.657Z,45.60
2022-08-16T23:30:57.827Z,45.40
2022-08-16T23:33:28.824Z,46.08
2022-08-16T23:36:00.139Z,46.80
2022-08-16T23:38:37.497Z,50.22
2022-08-16T23:41:11.474Z,42.67
2022-08-16T23:46:15.611Z,46.33
2022-08-16T23:49:58.106Z,47.22
2022-08-16T23:51:35.154Z,47.90
2022-08-16T23:54:09.708Z,44.58
2022-08-16T23:56:40.522Z,47.10
2022-08-16T23:59:12.232Z,44.03
